Time;durP1;ratioP1;P1;durP2;ratioP2;P2;SDS_P1;SDS_P2;PMS_P1;PMS_P2;Temp;Humidity;BMP_temperature;BMP_pressure;BME280_temperature;BME280_humidity;BME280_pressure;Samples;Min_cycle;Max_cycle;Signal;HPM_P1;HPM_P2
2023/05/16 00:01:15;;;;;;;17.95;4.15;;;;;;;;;;4973364;28;20055;-79
2023/05/16 00:03:42;;;;;;;11.82;2.90;;;;;;;;;;4974920;28;20031;-79
2023/05/16 00:06:08;;;;;;;23.30;4.18;;;;;;;;;;4956397;28;20025;-79
2023/05/16 00:08:35;;;;;;;19.40;4.03;;;;;;;;;;4956122;28;20117;-80
2023/05/16 00:11:01;;;;;;;12.23;3.33;;;;;;;;;;4955921;28;20032;-80
2023/05/16 00:13:29;;;;;;;15.90;3.25;;;;;;;;;;4970190;28;20038;-78
2023/05/16 00:15:55;;;;;;;20.25;4.45;;;;;;;;;;4943386;28;20101;-78
2023/05/16 00:18:22;;;;;;;16.73;3.72;;;;;;;;;;4957249;28;20371;-78
2023/05/16 00:20:48;;;;;;;19.38;5.07;;;;;;;;;;4958046;28;20026;-79
2023/05/16 00:23:15;;;;;;;12.88;3.17;;;;;;;;;;4963063;28;20138;-78
2023/05/16 00:25:41;;;;;;;20.70;3.50;;;;;;;;;;4954861;28;20046;-78
2023/05/16 00:28:07;;;;;;;21.65;4.22;;;;;;;;;;4965911;28;20062;-80
2023/05/16 00:30:34;;;;;;;19.20;3.78;;;;;;;;;;4949613;29;20649;-78
2023/05/16 00:33:01;;;;;;;18.90;3.55;;;;;;;;;;4944035;28;20502;-78
2023/05/16 00:35:27;;;;;;;8.90;2.47;;;;;;;;;;4966476;28;20141;-80
2023/05/16 00:37:53;;;;;;;19.02;3.38;;;;;;;;;;4945073;28;20115;-80
2023/05/16 00:40:20;;;;;;;13.95;2.72;;;;;;;;;;4967417;28;20162;-80
2023/05/16 00:42:46;;;;;;;16.13;3.72;;;;;;;;;;4968146;28;20360;-77
2023/05/16 00:45:12;;;;;;;13.27;4.00;;;;;;;;;;4960241;28;20030;-78
2023/05/16 00:47:38;;;;;;;16.30;3.50;;;;;;;;;;4943267;28;20039;-77
2023/05/16 00:50:04;;;;;;;18.08;3.53;;;;;;;;;;4954313;28;20105;-78
2023/05/16 00:52:32;;;;;;;13.48;2.75;;;;;;;;;;4957176;28;20478;-77
2023/05/16 00:54:58;;;;;;;16.73;3.03;;;;;;;;;;4976046;28;20038;-77
2023/05/16 00:57:24;;;;;;;15.77;3.78;;;;;;;;;;4962429;28;20037;-77
2023/05/16 00:59:51;;;;;;;17.75;3.25;;;;;;;;;;4968115;28;20015;-79
2023/05/16 01:02:17;;;;;;;12.75;2.90;;;;;;;;;;4971400;28;20022;-77
2023/05/16 01:04:43;;;;;;;20.85;3.10;;;;;;;;;;4967917;28;20051;-79
2023/05/16 01:07:09;;;;;;;20.35;2.92;;;;;;;;;;4959996;28;20051;-78
2023/05/16 01:09:36;;;;;;;19.45;3.05;;;;;;;;;;4962795;28;20027;-78
2023/05/16 01:12:15;;;;;;;10.15;2.88;;;;;;;;;;4964461;28;20026;-77
2023/05/16 01:14:47;;;;;;;15.07;3.45;;;;;;;;;;4959531;28;20042;-78
2023/05/16 01:17:14;;;;;;;14.38;2.75;;;;;;;;;;4957496;28;20038;-78
2023/05/16 01:19:58;;;;;;;20.85;2.63;;;;;;;;;;4965709;28;20497;-79
2023/05/16 01:22:27;;;;;;;12.93;2.90;;;;;;;;;;4943493;29;20466;-79
2023/05/16 01:24:57;;;;;;;20.30;3.35;;;;;;;;;;4953638;28;20109;-79
2023/05/16 01:27:23;;;;;;;11.17;2.17;;;;;;;;;;4958993;28;20031;-79
2023/05/16 01:29:55;;;;;;;14.50;3.03;;;;;;;;;;4964788;28;20035;-78
2023/05/16 01:32:21;;;;;;;15.63;2.78;;;;;;;;;;4967466;28;20078;-78
2023/05/16 01:34:47;;;;;;;27.88;3.70;;;;;;;;;;4958245;28;20126;-79
2023/05/16 01:37:19;;;;;;;19.92;3.22;;;;;;;;;;4959698;28;20027;-78
2023/05/16 01:39:53;;;;;;;17.88;3.35;;;;;;;;;;4970717;28;20097;-80
2023/05/16 01:42:25;;;;;;;14.85;2.28;;;;;;;;;;4969695;28;20096;-79
2023/05/16 01:45:00;;;;;;;16.85;2.63;;;;;;;;;;4970833;28;20494;-79
2023/05/16 01:47:27;;;;;;;15.70;2.92;;;;;;;;;;4966843;28;20474;-79
2023/05/16 01:50:05;;;;;;;15.00;2.63;;;;;;;;;;4962123;28;20094;-78
2023/05/16 01:52:43;;;;;;;12.68;3.05;;;;;;;;;;4959301;28;20027;-78
2023/05/16 01:55:18;;;;;;;20.95;3.22;;;;;;;;;;4942282;28;20501;-80
2023/05/16 01:57:45;;;;;;;12.98;2.15;;;;;;;;;;4956254;28;20032;-79
2023/05/16 02:00:12;;;;;;;15.27;3.13;;;;;;;;;;4966150;28;20015;-80
2023/05/16 02:02:38;;;;;;;16.10;3.17;;;;;;;;;;4970196;28;20421;-80
2023/05/16 02:05:04;;;;;;;18.88;2.70;;;;;;;;;;4952419;28;20026;-78
2023/05/16 02:07:30;;;;;;;17.40;3.47;;;;;;;;;;4970511;28;20049;-78
2023/05/16 02:09:56;;;;;;;19.90;3.72;;;;;;;;;;4971155;28;20023;-78
2023/05/16 02:12:22;;;;;;;23.80;3.08;;;;;;;;;;4968595;28;20498;-78
2023/05/16 02:14:48;;;;;;;21.25;3.28;;;;;;;;;;4956612;28;20023;-79
2023/05/16 02:17:14;;;;;;;19.52;3.25;;;;;;;;;;4970669;28;20446;-79
2023/05/16 02:19:40;;;;;;;20.92;4.13;;;;;;;;;;4959404;28;20498;-78
2023/05/16 02:22:06;;;;;;;17.77;3.22;;;;;;;;;;4962702;28;20094;-79
2023/05/16 02:24:32;;;;;;;18.67;2.92;;;;;;;;;;4955333;28;20545;-78
2023/05/16 02:26:58;;;;;;;13.80;2.30;;;;;;;;;;4947449;28;20847;-78
2023/05/16 02:29:24;;;;;;;17.70;2.80;;;;;;;;;;4954874;28;20023;-78
2023/05/16 02:31:50;;;;;;;19.20;3.00;;;;;;;;;;4965330;28;20027;-78
2023/05/16 02:34:16;;;;;;;17.08;2.97;;;;;;;;;;4959070;28;20035;-79
2023/05/16 02:36:42;;;;;;;16.27;2.70;;;;;;;;;;4964474;28;20051;-79
2023/05/16 02:39:09;;;;;;;19.00;2.65;;;;;;;;;;4947428;28;20384;-81
2023/05/16 02:41:35;;;;;;;15.20;2.15;;;;;;;;;;4966302;28;20041;-81
2023/05/16 02:44:01;;;;;;;15.23;3.08;;;;;;;;;;4961765;28;20095;-78
2023/05/16 02:46:29;;;;;;;19.77;3.53;;;;;;;;;;4964831;28;20027;-80
2023/05/16 02:48:55;;;;;;;13.38;3.47;;;;;;;;;;4962563;28;20030;-79
2023/05/16 02:51:22;;;;;;;14.40;2.85;;;;;;;;;;4962561;28;20397;-79
2023/05/16 02:53:48;;;;;;;18.33;3.38;;;;;;;;;;4971109;28;20110;-79
2023/05/16 02:56:15;;;;;;;15.27;3.00;;;;;;;;;;4968015;28;20090;-78
2023/05/16 02:58:41;;;;;;;23.50;3.97;;;;;;;;;;4944305;29;20031;-79
2023/05/16 03:01:07;;;;;;;13.38;2.88;;;;;;;;;;4957902;28;20058;-80
2023/05/16 03:03:34;;;;;;;12.85;3.38;;;;;;;;;;4969203;28;20474;-78
2023/05/16 03:06:01;;;;;;;22.17;3.40;;;;;;;;;;4974058;28;20441;-78
2023/05/16 03:08:27;;;;;;;22.77;3.85;;;;;;;;;;4974362;28;20050;-80
2023/05/16 03:10:53;;;;;;;20.23;3.63;;;;;;;;;;4958883;28;20043;-79
2023/05/16 03:13:19;;;;;;;21.48;4.43;;;;;;;;;;4964055;28;20034;-79
2023/05/16 03:15:45;;;;;;;12.32;2.90;;;;;;;;;;4960074;28;20023;-81
2023/05/16 03:18:11;;;;;;;18.23;3.58;;;;;;;;;;4966763;28;20110;-78
2023/05/16 03:20:38;;;;;;;21.65;3.20;;;;;;;;;;4955071;29;20482;-80
2023/05/16 03:23:07;;;;;;;12.48;2.65;;;;;;;;;;4961031;28;20023;-78
2023/05/16 03:25:35;;;;;;;15.30;3.70;;;;;;;;;;4974937;28;20031;-79
2023/05/16 03:28:01;;;;;;;13.45;3.08;;;;;;;;;;4963036;28;20122;-79
2023/05/16 03:30:28;;;;;;;17.52;3.22;;;;;;;;;;4955845;28;20089;-79
2023/05/16 03:32:55;;;;;;;15.40;2.70;;;;;;;;;;4961356;28;20477;-79
2023/05/16 03:35:22;;;;;;;20.55;3.55;;;;;;;;;;4970706;28;20094;-79
2023/05/16 03:37:48;;;;;;;12.40;2.97;;;;;;;;;;4962285;28;20453;-79
2023/05/16 03:40:14;;;;;;;15.48;3.67;;;;;;;;;;4958677;28;20492;-80
2023/05/16 03:42:40;;;;;;;18.80;3.05;;;;;;;;;;4970946;28;20106;-79
2023/05/16 03:45:06;;;;;;;14.20;3.70;;;;;;;;;;4955520;28;20094;-79
2023/05/16 03:47:32;;;;;;;11.98;2.83;;;;;;;;;;4957542;28;20039;-79
2023/05/16 03:49:59;;;;;;;19.27;4.20;;;;;;;;;;4973322;28;20035;-79
2023/05/16 03:52:25;;;;;;;18.30;2.90;;;;;;;;;;4955906;28;20051;-79
2023/05/16 03:54:51;;;;;;;15.05;2.95;;;;;;;;;;4966921;28;20440;-79
2023/05/16 03:57:17;;;;;;;14.35;2.78;;;;;;;;;;4971660;28;20018;-80
2023/05/16 03:59:43;;;;;;;12.52;2.80;;;;;;;;;;4973137;28;20023;-79
2023/05/16 04:02:09;;;;;;;14.00;2.95;;;;;;;;;;4969890;28;20095;-80
2023/05/16 04:04:35;;;;;;;15.15;3.30;;;;;;;;;;4963229;28;20106;-78
2023/05/16 04:07:02;;;;;;;19.50;3.70;;;;;;;;;;4967964;28;20102;-78
2023/05/16 04:09:28;;;;;;;14.10;3.13;;;;;;;;;;4968310;28;20438;-79
2023/05/16 04:11:55;;;;;;;16.13;3.30;;;;;;;;;;4973200;28;20027;-80
2023/05/16 04:14:21;;;;;;;16.95;3.22;;;;;;;;;;4965597;28;20042;-78
2023/05/16 04:16:47;;;;;;;17.67;3.10;;;;;;;;;;4955592;28;20069;-78
2023/05/16 04:19:13;;;;;;;15.68;3.20;;;;;;;;;;4973334;28;20054;-79
2023/05/16 04:21:39;;;;;;;9.98;2.72;;;;;;;;;;4972614;28;20031;-80
2023/05/16 04:24:06;;;;;;;16.42;3.35;;;;;;;;;;4961300;28;20204;-80
2023/05/16 04:26:33;;;;;;;10.13;2.65;;;;;;;;;;4966863;28;20066;-81
2023/05/16 04:28:59;;;;;;;8.73;2.50;;;;;;;;;;4953262;28;20032;-80
2023/05/16 04:31:25;;;;;;;13.07;3.25;;;;;;;;;;4953908;28;20121;-79
2023/05/16 04:33:52;;;;;;;16.52;3.30;;;;;;;;;;4972311;28;20130;-79
2023/05/16 04:36:18;;;;;;;20.90;4.47;;;;;;;;;;4954032;28;20185;-79
2023/05/16 04:38:45;;;;;;;19.80;3.03;;;;;;;;;;4956321;28;20035;-78
2023/05/16 04:41:12;;;;;;;15.32;2.95;;;;;;;;;;4958105;28;20491;-78
2023/05/16 04:43:38;;;;;;;17.20;3.67;;;;;;;;;;4937196;29;20027;-79
2023/05/16 04:46:06;;;;;;;17.42;3.45;;;;;;;;;;4969128;28;20027;-80
2023/05/16 04:48:32;;;;;;;14.07;3.00;;;;;;;;;;4958711;28;20490;-78
2023/05/16 04:50:58;;;;;;;17.00;2.67;;;;;;;;;;4970849;28;20015;-80
2023/05/16 04:53:24;;;;;;;20.63;3.22;;;;;;;;;;4952168;28;20072;-78
2023/05/16 04:55:50;;;;;;;21.70;3.92;;;;;;;;;;4958221;28;20031;-79
2023/05/16 04:58:16;;;;;;;12.93;2.55;;;;;;;;;;4966126;28;20037;-80
2023/05/16 05:00:42;;;;;;;15.55;3.15;;;;;;;;;;4953684;28;20023;-79
2023/05/16 05:03:08;;;;;;;14.77;3.33;;;;;;;;;;4963512;28;20026;-79
2023/05/16 05:05:34;;;;;;;21.80;4.28;;;;;;;;;;4959307;28;20026;-80
2023/05/16 05:08:03;;;;;;;16.90;3.20;;;;;;;;;;4953539;28;20039;-80
2023/05/16 05:10:30;;;;;;;10.90;3.15;;;;;;;;;;4959337;28;20031;-81
2023/05/16 05:12:56;;;;;;;16.15;3.30;;;;;;;;;;4970055;28;20062;-82
2023/05/16 05:15:22;;;;;;;19.05;5.07;;;;;;;;;;4955820;28;20034;-79
2023/05/16 05:17:48;;;;;;;19.00;3.83;;;;;;;;;;4976394;28;20042;-78
2023/05/16 05:20:15;;;;;;;16.35;4.05;;;;;;;;;;4944575;29;20034;-79
2023/05/16 05:22:41;;;;;;;15.90;3.90;;;;;;;;;;4969011;28;20053;-79
2023/05/16 05:25:08;;;;;;;15.23;3.13;;;;;;;;;;4970056;28;20027;-80
2023/05/16 05:27:34;;;;;;;16.00;2.80;;;;;;;;;;4969848;28;20039;-79
2023/05/16 05:30:00;;;;;;;16.65;3.85;;;;;;;;;;4934289;29;20027;-79
2023/05/16 05:32:26;;;;;;;16.52;3.90;;;;;;;;;;4939426;28;20034;-79
2023/05/16 05:34:52;;;;;;;13.45;2.67;;;;;;;;;;4955756;28;20498;-80
2023/05/16 05:37:18;;;;;;;14.95;3.72;;;;;;;;;;4957999;28;20031;-79
2023/05/16 05:39:44;;;;;;;13.38;3.10;;;;;;;;;;4961012;28;20050;-78
2023/05/16 05:42:11;;;;;;;11.85;2.83;;;;;;;;;;4968434;28;20035;-78
2023/05/16 05:44:37;;;;;;;13.27;3.35;;;;;;;;;;4961286;28;20034;-79
2023/05/16 05:47:03;;;;;;;16.00;3.53;;;;;;;;;;4941282;28;20046;-78
2023/05/16 05:49:30;;;;;;;12.15;3.08;;;;;;;;;;4959112;28;20041;-79
2023/05/16 05:51:56;;;;;;;22.73;3.42;;;;;;;;;;4950848;29;20499;-80
2023/05/16 05:54:23;;;;;;;18.88;3.70;;;;;;;;;;4950196;28;20038;-81
2023/05/16 05:56:49;;;;;;;14.13;3.20;;;;;;;;;;4951296;28;20078;-81
2023/05/16 05:59:15;;;;;;;19.15;4.22;;;;;;;;;;4945267;28;20082;-79
2023/05/16 06:01:42;;;;;;;12.43;2.85;;;;;;;;;;4947518;28;20049;-80
2023/05/16 06:04:08;;;;;;;12.68;3.53;;;;;;;;;;4966374;28;20027;-79
2023/05/16 06:06:35;;;;;;;14.95;2.97;;;;;;;;;;4958324;28;20078;-80
2023/05/16 06:09:01;;;;;;;20.35;3.45;;;;;;;;;;4968564;28;20034;-79
2023/05/16 06:11:27;;;;;;;22.75;4.25;;;;;;;;;;4958842;28;20062;-80
2023/05/16 06:13:53;;;;;;;13.50;2.90;;;;;;;;;;4942658;28;20462;-79
2023/05/16 06:16:19;;;;;;;18.35;4.28;;;;;;;;;;4954219;28;20551;-82
2023/05/16 06:18:47;;;;;;;15.27;3.30;;;;;;;;;;4944497;28;20042;-78
2023/05/16 06:21:14;;;;;;;15.80;3.05;;;;;;;;;;4956353;28;20095;-80
2023/05/16 06:23:40;;;;;;;20.88;3.35;;;;;;;;;;4962826;28;20034;-79
2023/05/16 06:26:06;;;;;;;15.25;2.40;;;;;;;;;;4967172;28;20066;-81
2023/05/16 06:28:34;;;;;;;13.68;3.28;;;;;;;;;;4965662;28;20042;-79
2023/05/16 06:31:00;;;;;;;22.38;3.55;;;;;;;;;;4957430;28;20031;-79
2023/05/16 06:33:27;;;;;;;12.90;3.00;;;;;;;;;;4975147;28;20088;-80
2023/05/16 06:35:53;;;;;;;15.60;3.30;;;;;;;;;;4973641;28;20057;-80
2023/05/16 06:38:19;;;;;;;10.68;2.70;;;;;;;;;;4954622;28;20527;-79
2023/05/16 06:40:45;;;;;;;9.88;2.60;;;;;;;;;;4945337;29;20078;-80
2023/05/16 06:43:11;;;;;;;13.32;2.33;;;;;;;;;;4969172;28;20701;-81
2023/05/16 06:45:37;;;;;;;13.80;3.33;;;;;;;;;;4963121;28;20027;-79
2023/05/16 06:48:04;;;;;;;13.85;3.45;;;;;;;;;;4954296;28;20051;-80
2023/05/16 06:50:30;;;;;;;12.25;2.53;;;;;;;;;;4961275;28;20058;-79
2023/05/16 06:52:56;;;;;;;17.52;2.72;;;;;;;;;;4969481;28;20488;-80
2023/05/16 06:55:22;;;;;;;10.48;1.88;;;;;;;;;;4944042;28;20086;-80
2023/05/16 06:57:48;;;;;;;9.65;2.72;;;;;;;;;;4957630;28;20035;-82
2023/05/16 07:00:14;;;;;;;11.15;2.60;;;;;;;;;;4945308;28;20077;-81
2023/05/16 07:02:40;;;;;;;12.40;2.47;;;;;;;;;;4960815;28;20390;-79
2023/05/16 07:05:06;;;;;;;10.70;1.92;;;;;;;;;;4969789;28;20034;-81
2023/05/16 07:07:32;;;;;;;13.90;2.03;;;;;;;;;;4963805;28;20118;-81
2023/05/16 07:09:58;;;;;;;10.10;2.33;;;;;;;;;;4939856;28;20024;-82
2023/05/16 07:12:26;;;;;;;9.68;2.08;;;;;;;;;;4956324;28;20093;-80
2023/05/16 07:14:52;;;;;;;10.43;1.65;;;;;;;;;;4971449;28;20027;-80
2023/05/16 07:17:18;;;;;;;10.10;2.13;;;;;;;;;;4972623;28;21225;-79
2023/05/16 07:19:44;;;;;;;11.93;1.80;;;;;;;;;;4961961;28;20019;-80
2023/05/16 07:22:10;;;;;;;8.25;1.58;;;;;;;;;;4963977;28;20036;-82
2023/05/16 07:24:36;;;;;;;6.65;1.63;;;;;;;;;;4956481;28;20035;-83
2023/05/16 07:27:03;;;;;;;7.18;1.52;;;;;;;;;;4954897;28;20409;-79
2023/05/16 07:29:29;;;;;;;7.40;1.77;;;;;;;;;;4967832;28;20087;-80
2023/05/16 07:31:55;;;;;;;9.60;1.38;;;;;;;;;;4974746;28;20023;-80
2023/05/16 07:34:21;;;;;;;8.38;1.60;;;;;;;;;;4974702;28;20061;-80
2023/05/16 07:36:47;;;;;;;7.22;1.45;;;;;;;;;;4945890;28;20050;-79
2023/05/16 07:39:13;;;;;;;8.48;1.48;;;;;;;;;;4954776;28;20054;-79
2023/05/16 07:41:39;;;;;;;6.07;1.70;;;;;;;;;;4965554;28;20058;-79
2023/05/16 07:44:05;;;;;;;5.25;1.38;;;;;;;;;;4963256;28;20035;-78
2023/05/16 07:46:31;;;;;;;10.30;1.92;;;;;;;;;;4968832;28;20097;-79
2023/05/16 07:48:57;;;;;;;11.27;1.42;;;;;;;;;;4954673;28;21038;-78
2023/05/16 07:51:24;;;;;;;5.50;1.25;;;;;;;;;;4958066;28;20031;-81
2023/05/16 07:53:51;;;;;;;7.30;1.58;;;;;;;;;;4968779;28;20033;-80
2023/05/16 07:56:17;;;;;;;8.68;1.95;;;;;;;;;;4958787;28;20088;-80
2023/05/16 07:58:43;;;;;;;5.47;1.02;;;;;;;;;;4944555;29;20023;-80
2023/05/16 08:01:09;;;;;;;9.85;1.60;;;;;;;;;;4968407;28;20090;-79
2023/05/16 08:03:35;;;;;;;12.52;2.00;;;;;;;;;;4952136;28;20046;-80
2023/05/16 08:06:01;;;;;;;4.40;0.88;;;;;;;;;;4959777;28;20027;-80
2023/05/16 08:08:28;;;;;;;5.38;0.93;;;;;;;;;;4969337;28;20046;-80
2023/05/16 08:10:54;;;;;;;8.00;1.48;;;;;;;;;;4952488;28;20529;-78
2023/05/16 08:13:20;;;;;;;5.65;1.08;;;;;;;;;;4961668;28;20022;-79
2023/05/16 08:15:46;;;;;;;7.10;1.42;;;;;;;;;;4963938;28;20085;-78
2023/05/16 08:18:13;;;;;;;4.63;1.50;;;;;;;;;;4961523;28;20023;-80
2023/05/16 08:20:40;;;;;;;7.72;1.33;;;;;;;;;;4966403;28;20027;-81
2023/05/16 08:23:06;;;;;;;7.40;2.03;;;;;;;;;;4959790;28;20038;-81
2023/05/16 08:25:32;;;;;;;5.82;1.13;;;;;;;;;;4963256;28;20131;-80
2023/05/16 08:28:00;;;;;;;5.85;1.35;;;;;;;;;;4956329;28;20035;-81
2023/05/16 08:30:26;;;;;;;9.98;1.67;;;;;;;;;;4964412;28;20121;-80
2023/05/16 08:32:52;;;;;;;7.18;1.33;;;;;;;;;;4962546;28;20073;-80
2023/05/16 08:35:18;;;;;;;7.22;1.20;;;;;;;;;;4953254;28;20083;-80
2023/05/16 08:37:45;;;;;;;5.43;1.05;;;;;;;;;;4970848;28;20070;-79
2023/05/16 08:40:11;;;;;;;6.13;1.52;;;;;;;;;;4969793;28;20034;-79
2023/05/16 08:42:37;;;;;;;6.50;1.10;;;;;;;;;;4970068;28;20031;-80
2023/05/16 08:45:04;;;;;;;4.57;1.48;;;;;;;;;;4947096;28;20171;-80
2023/05/16 08:47:32;;;;;;;6.95;1.33;;;;;;;;;;4961633;28;20389;-78
2023/05/16 08:49:58;;;;;;;2.30;0.70;;;;;;;;;;4964000;28;20090;-80
2023/05/16 08:52:29;;;;;;;3.40;0.60;;;;;;;;;;4954765;28;20034;-79
2023/05/16 08:54:56;;;;;;;5.95;0.88;;;;;;;;;;4963904;28;20037;-79
2023/05/16 08:57:22;;;;;;;7.32;1.30;;;;;;;;;;4968644;28;20026;-78
2023/05/16 08:59:48;;;;;;;3.72;1.13;;;;;;;;;;4971580;28;20366;-80
2023/05/16 09:02:15;;;;;;;3.40;0.88;;;;;;;;;;4965251;28;20035;-80
2023/05/16 09:04:44;;;;;;;2.85;0.90;;;;;;;;;;4961306;28;20105;-81
2023/05/16 09:07:10;;;;;;;6.47;0.98;;;;;;;;;;4961607;28;20035;-80
2023/05/16 09:09:37;;;;;;;4.45;1.00;;;;;;;;;;4958170;28;20027;-79
2023/05/16 09:12:03;;;;;;;4.35;1.00;;;;;;;;;;4952756;28;20109;-80
2023/05/16 09:14:29;;;;;;;5.03;1.23;;;;;;;;;;4963829;28;20081;-80
2023/05/16 09:17:08;;;;;;;4.53;1.00;;;;;;;;;;4954072;28;20120;-80
2023/05/16 09:19:38;;;;;;;5.80;1.02;;;;;;;;;;4958909;28;20029;-80
2023/05/16 09:22:05;;;;;;;6.38;1.30;;;;;;;;;;4968374;28;20116;-80
2023/05/16 09:24:31;;;;;;;7.13;1.90;;;;;;;;;;4959421;28;20304;-82
2023/05/16 09:27:19;;;;;;;7.38;1.65;;;;;;;;;;4965111;28;20160;-82
2023/05/16 09:29:49;;;;;;;4.68;1.17;;;;;;;;;;4956013;28;20031;-81
2023/05/16 09:32:16;;;;;;;6.13;1.08;;;;;;;;;;4967154;28;20034;-80
2023/05/16 09:34:44;;;;;;;5.05;0.77;;;;;;;;;;4956595;28;20027;-80
2023/05/16 09:37:11;;;;;;;4.55;1.17;;;;;;;;;;4968106;28;20038;-81
2023/05/16 09:39:39;;;;;;;6.53;1.48;;;;;;;;;;4958078;28;20088;-79
2023/05/16 09:42:05;;;;;;;8.45;1.30;;;;;;;;;;4972808;28;20456;-80
2023/05/16 09:44:31;;;;;;;3.88;0.70;;;;;;;;;;4957464;28;20035;-82
2023/05/16 09:46:57;;;;;;;4.80;1.02;;;;;;;;;;4959650;28;20062;-80
2023/05/16 09:49:23;;;;;;;6.82;1.73;;;;;;;;;;4965145;28;20023;-81
2023/05/16 09:51:51;;;;;;;7.50;1.35;;;;;;;;;;4976032;28;20022;-82
2023/05/16 09:54:19;;;;;;;5.35;1.23;;;;;;;;;;4971191;28;20508;-84
2023/05/16 09:56:49;;;;;;;7.63;1.77;;;;;;;;;;4968585;28;20038;-82
2023/05/16 09:59:15;;;;;;;6.38;1.35;;;;;;;;;;4979527;28;20143;-82
2023/05/16 10:01:42;;;;;;;9.15;1.25;;;;;;;;;;4975118;28;20015;-81
2023/05/16 10:04:12;;;;;;;4.20;1.10;;;;;;;;;;4963374;28;20027;-80
2023/05/16 10:06:39;;;;;;;6.10;1.25;;;;;;;;;;4971230;28;20539;-80
2023/05/16 10:09:05;;;;;;;6.35;1.02;;;;;;;;;;4962037;28;20506;-80
2023/05/16 10:11:33;;;;;;;7.78;1.35;;;;;;;;;;4956949;28;20023;-80
2023/05/16 10:13:59;;;;;;;8.90;1.30;;;;;;;;;;4951555;29;20145;-81
2023/05/16 10:16:25;;;;;;;5.65;1.10;;;;;;;;;;4958372;28;20018;-78
2023/05/16 10:18:51;;;;;;;6.60;1.40;;;;;;;;;;4967847;28;20073;-81
2023/05/16 10:21:18;;;;;;;3.38;0.93;;;;;;;;;;4956563;28;20027;-81
2023/05/16 10:23:47;;;;;;;10.73;1.38;;;;;;;;;;4971845;28;20153;-80
2023/05/16 10:26:15;;;;;;;6.50;1.20;;;;;;;;;;4962391;28;20474;-82
2023/05/16 10:28:41;;;;;;;4.78;1.05;;;;;;;;;;4976140;28;20030;-82
2023/05/16 10:31:08;;;;;;;4.65;1.50;;;;;;;;;;4961740;28;20171;-84
2023/05/16 10:33:35;;;;;;;9.70;1.23;;;;;;;;;;4964246;28;20043;-81
2023/05/16 10:36:02;;;;;;;6.95;1.40;;;;;;;;;;4959184;28;20082;-81
2023/05/16 10:38:29;;;;;;;2.28;0.52;;;;;;;;;;4966643;28;20023;-81
2023/05/16 10:40:55;;;;;;;6.13;1.15;;;;;;;;;;4942949;28;20030;-80
2023/05/16 10:43:29;;;;;;;4.07;0.88;;;;;;;;;;4976699;28;20093;-81
2023/05/16 10:46:08;;;;;;;4.38;0.77;;;;;;;;;;4981497;28;20022;-80
2023/05/16 10:48:38;;;;;;;4.90;1.02;;;;;;;;;;4972341;28;20141;-82
2023/05/16 10:51:04;;;;;;;;;;;;;;;;;;4972227;28;20042;-81
2023/05/16 10:53:32;;;;;;;8.48;1.30;;;;;;;;;;4974867;28;19941;-82
2023/05/16 10:56:02;;;;;;;6.50;1.23;;;;;;;;;;4951471;28;20149;-82
2023/05/16 10:58:31;;;;;;;6.85;1.15;;;;;;;;;;4971995;28;20042;-82
2023/05/16 11:01:16;;;;;;;4.47;0.98;;;;;;;;;;4961330;28;20069;-81
2023/05/16 11:04:00;;;;;;;5.13;1.20;;;;;;;;;;4963586;28;20046;-80
2023/05/16 11:06:33;;;;;;;3.35;0.70;;;;;;;;;;4957296;28;20028;-83
2023/05/16 11:09:05;;;;;;;5.90;1.35;;;;;;;;;;4967063;28;20031;-81
2023/05/16 11:11:42;;;;;;;5.57;1.50;;;;;;;;;;4955876;28;20105;-81
2023/05/16 11:14:08;;;;;;;5.95;1.15;;;;;;;;;;4972197;28;20069;-81
2023/05/16 11:16:38;;;;;;;5.38;1.02;;;;;;;;;;4970246;28;20035;-81
2023/05/16 11:19:08;;;;;;;13.00;1.42;;;;;;;;;;4964351;28;20118;-82
2023/05/16 11:22:10;;;;;;;7.55;1.60;;;;;;;;;;4966967;28;20026;-80
2023/05/16 11:24:37;;;;;;;4.80;1.15;;;;;;;;;;4889332;29;20096;-77
2023/05/16 11:27:04;;;;;;;9.32;1.17;;;;;;;;;;4971780;28;20049;-81
2023/05/16 11:29:34;;;;;;;6.75;1.15;;;;;;;;;;4979434;28;20038;-80
2023/05/16 11:32:00;;;;;;;8.35;1.20;;;;;;;;;;4971137;28;20034;-82
2023/05/16 11:34:26;;;;;;;8.90;1.55;;;;;;;;;;4964021;28;20023;-81
2023/05/16 11:36:52;;;;;;;3.80;0.90;;;;;;;;;;4957315;28;20046;-80
2023/05/16 11:39:19;;;;;;;6.47;1.35;;;;;;;;;;4965755;28;20341;-83
2023/05/16 11:41:45;;;;;;;3.10;0.77;;;;;;;;;;4976830;28;20023;-81
2023/05/16 11:44:12;;;;;;;4.70;1.10;;;;;;;;;;4964588;28;20047;-82
2023/05/16 11:46:40;;;;;;;3.75;0.95;;;;;;;;;;4972275;28;20023;-80
2023/05/16 11:49:08;;;;;;;3.33;0.82;;;;;;;;;;4958685;28;20214;-80
2023/05/16 11:51:34;;;;;;;6.50;1.13;;;;;;;;;;4956187;28;20030;-80
2023/05/16 11:54:03;;;;;;;4.60;0.98;;;;;;;;;;4973446;28;20031;-81
2023/05/16 11:56:32;;;;;;;4.55;1.00;;;;;;;;;;4964641;28;20034;-80
2023/05/16 11:59:01;;;;;;;9.32;1.83;;;;;;;;;;4939265;29;20019;-81
2023/05/16 12:01:37;;;;;;;9.10;1.65;;;;;;;;;;4968644;28;20027;-82
2023/05/16 12:04:11;;;;;;;6.93;1.00;;;;;;;;;;4954551;28;20043;-83
2023/05/16 12:06:37;;;;;;;4.10;1.00;;;;;;;;;;4950127;28;20031;-81
2023/05/16 12:09:09;;;;;;;4.43;1.00;;;;;;;;;;4955544;28;20038;-81
2023/05/16 12:11:38;;;;;;;6.18;1.27;;;;;;;;;;4968208;28;20037;-84
2023/05/16 12:14:08;;;;;;;7.97;2.03;;;;;;;;;;4955554;28;20041;-80
2023/05/16 12:16:35;;;;;;;5.43;1.20;;;;;;;;;;4962764;28;20023;-82
2023/05/16 12:19:03;;;;;;;4.35;1.20;;;;;;;;;;4969569;28;20117;-81
2023/05/16 12:21:29;;;;;;;9.82;1.52;;;;;;;;;;4965219;28;20023;-81
2023/05/16 12:23:57;;;;;;;4.40;1.02;;;;;;;;;;4958628;28;20453;-78
2023/05/16 12:26:31;;;;;;;5.40;1.25;;;;;;;;;;4968591;28;20033;-79
2023/05/16 12:28:59;;;;;;;7.40;1.50;;;;;;;;;;4961308;28;20054;-80
2023/05/16 12:31:26;;;;;;;5.53;1.30;;;;;;;;;;4950618;28;20824;-80
2023/05/16 12:33:56;;;;;;;7.10;1.20;;;;;;;;;;4955359;28;20027;-80
2023/05/16 12:36:25;;;;;;;6.00;1.63;;;;;;;;;;4972345;28;20081;-80
2023/05/16 12:38:52;;;;;;;7.78;1.35;;;;;;;;;;4968735;28;20031;-81
2023/05/16 12:41:19;;;;;;;5.43;1.17;;;;;;;;;;4966638;28;20027;-81
2023/05/16 12:43:46;;;;;;;5.43;1.20;;;;;;;;;;4969630;28;20023;-82
2023/05/16 12:46:12;;;;;;;7.72;1.10;;;;;;;;;;4969590;28;20133;-79
2023/05/16 12:48:42;;;;;;;6.03;1.00;;;;;;;;;;4971459;28;20038;-82
2023/05/16 12:51:12;;;;;;;8.65;1.40;;;;;;;;;;4969220;28;20030;-79
2023/05/16 12:53:45;;;;;;;5.63;1.02;;;;;;;;;;4970269;28;20031;-80
2023/05/16 12:56:13;;;;;;;8.30;1.50;;;;;;;;;;4971167;28;20078;-81
2023/05/16 12:58:40;;;;;;;6.43;1.35;;;;;;;;;;4953288;28;20033;-82
2023/05/16 13:01:06;;;;;;;6.35;1.15;;;;;;;;;;4972209;28;20027;-82
2023/05/16 13:03:35;;;;;;;6.68;0.73;;;;;;;;;;4969861;28;20026;-82
2023/05/16 13:06:02;;;;;;;5.63;1.17;;;;;;;;;;4964973;28;20038;-82
2023/05/16 13:08:29;;;;;;;7.78;1.60;;;;;;;;;;4966692;28;20074;-83
2023/05/16 13:10:55;;;;;;;8.38;1.70;;;;;;;;;;4959631;28;20035;-80
2023/05/16 13:13:23;;;;;;;4.82;1.30;;;;;;;;;;4951141;28;20402;-80
2023/05/16 13:15:49;;;;;;;6.00;1.30;;;;;;;;;;4940934;29;20109;-82
2023/05/16 13:18:15;;;;;;;4.30;0.80;;;;;;;;;;4962782;28;20030;-79
2023/05/16 13:20:42;;;;;;;3.38;0.88;;;;;;;;;;4960699;28;20082;-80
2023/05/16 13:23:08;;;;;;;3.35;1.27;;;;;;;;;;4961838;28;20114;-81
2023/05/16 13:25:34;;;;;;;7.45;1.23;;;;;;;;;;4968518;28;20023;-81
2023/05/16 13:28:00;;;;;;;4.57;1.13;;;;;;;;;;4962336;28;20038;-80
2023/05/16 13:30:27;;;;;;;6.75;1.23;;;;;;;;;;4955151;28;20028;-81
2023/05/16 13:32:53;;;;;;;3.50;0.82;;;;;;;;;;4966115;28;20477;-79
2023/05/16 13:35:20;;;;;;;3.20;0.88;;;;;;;;;;4970726;28;20057;-81
2023/05/16 13:37:47;;;;;;;6.40;1.33;;;;;;;;;;4971473;28;20086;-81
2023/05/16 13:40:13;;;;;;;6.55;1.52;;;;;;;;;;4972002;28;20082;-82
2023/05/16 13:42:39;;;;;;;6.13;1.20;;;;;;;;;;4968742;28;20026;-81
2023/05/16 13:45:06;;;;;;;8.63;1.90;;;;;;;;;;4980883;28;20425;-83
2023/05/16 13:47:32;;;;;;;6.55;1.55;;;;;;;;;;4952944;28;20070;-82
2023/05/16 13:50:03;;;;;;;6.65;1.65;;;;;;;;;;4964669;28;20024;-83
2023/05/16 13:52:29;;;;;;;8.45;1.85;;;;;;;;;;4939761;28;20032;-82
2023/05/16 13:54:55;;;;;;;9.68;1.30;;;;;;;;;;4946568;29;20039;-80
2023/05/16 13:57:22;;;;;;;11.25;1.90;;;;;;;;;;4968835;28;20042;-83
2023/05/16 13:59:48;;;;;;;7.85;1.92;;;;;;;;;;4954066;28;20034;-81
2023/05/16 14:02:14;;;;;;;6.93;2.10;;;;;;;;;;4956898;28;20102;-81
2023/05/16 14:04:40;;;;;;;9.38;1.65;;;;;;;;;;4955588;28;20537;-80
2023/05/16 14:07:06;;;;;;;7.60;1.60;;;;;;;;;;4969081;28;20034;-82
2023/05/16 14:09:33;;;;;;;6.93;1.25;;;;;;;;;;4952034;28;20519;-82
2023/05/16 14:12:01;;;;;;;6.45;1.23;;;;;;;;;;4969108;28;20057;-80
2023/05/16 14:14:27;;;;;;;7.30;1.25;;;;;;;;;;4967693;28;20046;-82
2023/05/16 14:16:53;;;;;;;8.43;1.80;;;;;;;;;;4968070;28;20055;-81
2023/05/16 14:19:19;;;;;;;8.63;1.83;;;;;;;;;;4964633;28;20043;-81
2023/05/16 14:21:45;;;;;;;7.30;1.60;;;;;;;;;;4952536;28;20034;-82
2023/05/16 14:24:11;;;;;;;9.95;1.38;;;;;;;;;;4951633;28;20497;-80
2023/05/16 14:26:38;;;;;;;7.55;2.35;;;;;;;;;;4964005;28;20028;-80
2023/05/16 14:29:04;;;;;;;8.85;1.70;;;;;;;;;;4968603;28;20035;-79
2023/05/16 14:31:30;;;;;;;5.07;1.00;;;;;;;;;;4953597;28;20030;-81
2023/05/16 14:33:57;;;;;;;7.65;1.80;;;;;;;;;;4969020;28;20030;-80
2023/05/16 14:36:23;;;;;;;9.05;2.15;;;;;;;;;;4948133;28;20145;-81